Time;durP1;ratioP1;P1;durP2;ratioP2;P2;SDS_P1;SDS_P2;PMS_P1;PMS_P2;Temp;Humidity;BMP_temperature;BMP_pressure;BME280_temperature;BME280_humidity;BME280_pressure;Samples;Min_cycle;Max_cycle;Signal;HPM_P1;HPM_P2
2023/04/17 00:02:04;;;;;;;32.83;25.60;;;;;;;9.71;97.95;102465.88;5094667;28;20098;-44
2023/04/17 00:04:30;;;;;;;35.90;28.17;;;;;;;9.72;98.24;102468.41;5094564;28;20099;-44
2023/04/17 00:06:56;;;;;;;35.28;25.90;;;;;;;9.74;97.85;102466.19;5094825;28;20028;-43
2023/04/17 00:09:21;;;;;;;36.20;25.85;;;;;;;9.71;97.49;102455.69;5094623;28;20039;-45
2023/04/17 00:11:46;;;;;;;36.50;26.15;;;;;;;9.70;96.95;102458.69;5094684;28;20032;-46
2023/04/17 00:14:12;;;;;;;37.13;27.13;;;;;;;9.64;97.62;102458.63;5094634;28;20533;-45
2023/04/17 00:16:37;;;;;;;35.33;26.23;;;;;;;9.64;97.85;102447.59;5094476;28;20379;-45
2023/04/17 00:19:03;;;;;;;35.40;25.60;;;;;;;9.64;97.98;102466.09;5094551;28;20081;-45
2023/04/17 00:21:30;;;;;;;34.97;26.58;;;;;;;9.65;98.66;102451.16;5094487;28;20069;-45
2023/04/17 00:23:56;;;;;;;34.83;26.60;;;;;;;9.66;98.21;102461.97;5094503;28;20056;-45
2023/04/17 00:26:21;;;;;;;35.95;27.27;;;;;;;9.69;98.21;102455.09;5094396;28;20062;-44
2023/04/17 00:28:49;;;;;;;38.40;26.35;;;;;;;9.67;97.92;102454.50;5094384;28;20048;-44
2023/04/17 00:31:14;;;;;;;33.63;26.30;;;;;;;9.68;97.72;102472.78;5094223;28;20114;-44
2023/04/17 00:33:39;;;;;;;35.15;26.70;;;;;;;9.67;97.35;102465.56;5092689;28;20134;-44
2023/04/17 00:36:05;;;;;;;37.75;27.45;;;;;;;9.65;97.71;102467.75;5094048;28;20401;-46
2023/04/17 00:38:31;;;;;;;35.03;26.25;;;;;;;9.65;97.67;102467.75;5094061;28;20032;-44
2023/04/17 00:40:56;;;;;;;38.78;27.55;;;;;;;9.61;97.62;102461.09;5094034;28;20043;-45
2023/04/17 00:43:21;;;;;;;34.95;26.40;;;;;;;9.60;97.66;102459.41;5094036;28;20506;-44
2023/04/17 00:45:47;;;;;;;34.10;26.05;;;;;;;9.61;98.82;102459.16;5093993;28;20032;-44
2023/04/17 00:48:13;;;;;;;36.15;27.20;;;;;;;9.60;98.36;102451.94;5093855;28;20027;-45
2023/04/17 00:50:39;;;;;;;37.92;26.67;;;;;;;9.56;97.71;102452.72;5093866;28;20028;-45
2023/04/17 00:53:05;;;;;;;35.65;26.40;;;;;;;9.60;97.92;102453.91;5093303;28;20111;-45
2023/04/17 00:55:31;;;;;;;35.35;26.30;;;;;;;9.59;97.68;102447.53;5093713;28;20027;-45
2023/04/17 00:57:57;;;;;;;34.60;25.33;;;;;;;9.61;98.02;102448.09;5093662;28;20043;-45
2023/04/17 01:00:23;;;;;;;34.47;26.02;;;;;;;9.62;98.04;102446.19;5093669;28;20032;-44
2023/04/17 01:02:48;;;;;;;35.28;26.45;;;;;;;9.56;97.77;102436.16;5093427;28;20035;-45
2023/04/17 01:05:14;;;;;;;33.35;26.52;;;;;;;9.56;96.84;102438.91;5093836;28;20542;-45
2023/04/17 01:07:40;;;;;;;33.70;25.90;;;;;;;9.54;96.81;102441.94;5093236;28;20535;-45
2023/04/17 01:10:06;;;;;;;35.03;25.20;;;;;;;9.49;97.07;102437.22;5092965;28;20076;-45
2023/04/17 01:12:32;;;;;;;33.55;25.35;;;;;;;9.51;96.13;102440.56;5091910;28;20043;-46
2023/04/17 01:14:57;;;;;;;33.42;25.17;;;;;;;9.50;95.83;102444.41;5091811;28;20028;-45
2023/04/17 01:17:26;;;;;;;33.28;24.95;;;;;;;9.60;97.06;102451.13;5093295;28;20097;-46
2023/04/17 01:19:52;;;;;;;35.13;25.85;;;;;;;9.57;96.18;102452.50;5091674;28;20118;-47
2023/04/17 01:22:20;;;;;;;36.35;26.67;;;;;;;9.53;95.65;102443.03;5093256;28;20111;-47
2023/04/17 01:24:47;;;;;;;33.05;25.45;;;;;;;9.48;95.14;102448.53;5093215;28;20444;-45
2023/04/17 01:27:13;;;;;;;33.97;24.75;;;;;;;9.41;95.83;102437.66;5093164;28;20066;-45
2023/04/17 01:29:39;;;;;;;34.17;26.40;;;;;;;9.43;95.39;102446.53;5092788;28;20060;-45
2023/04/17 01:32:05;;;;;;;33.05;26.85;;;;;;;9.41;95.86;102451.47;5093187;28;20062;-45
2023/04/17 01:34:30;;;;;;;35.65;26.75;;;;;;;9.39;96.67;102450.06;5093029;28;20032;-44
2023/04/17 01:36:56;;;;;;;35.28;26.60;;;;;;;9.41;97.88;102442.34;5092843;28;20464;-44
2023/04/17 01:39:21;;;;;;;35.80;27.00;;;;;;;9.41;97.40;102451.47;5091128;28;20044;-44
2023/04/17 01:41:47;;;;;;;36.17;27.33;;;;;;;9.43;97.80;102459.50;5092899;28;20038;-44
2023/04/17 01:44:12;;;;;;;36.75;28.20;;;;;;;9.41;97.44;102448.72;5092704;28;20047;-46
2023/04/17 01:46:37;;;;;;;35.22;27.40;;;;;;;9.41;97.56;102447.88;5092882;28;20056;-47
2023/04/17 01:49:02;;;;;;;36.47;27.75;;;;;;;9.39;97.10;102461.13;5092699;28;20118;-47
2023/04/17 01:51:28;;;;;;;34.13;26.65;;;;;;;9.34;97.79;102442.56;5092804;28;20027;-44
2023/04/17 01:53:53;;;;;;;35.50;27.17;;;;;;;9.41;98.02;102453.41;5091108;28;20496;-46
2023/04/17 01:56:19;;;;;;;35.70;26.83;;;;;;;9.38;97.18;102452.00;5092454;28;20027;-44
2023/04/17 01:58:44;;;;;;;35.55;26.23;;;;;;;9.37;97.46;102444.78;5092456;28;20077;-44
2023/04/17 02:01:10;;;;;;;35.45;26.88;;;;;;;9.44;97.87;102456.50;5091392;28;20120;-44
2023/04/17 02:03:35;;;;;;;35.17;25.92;;;;;;;9.41;97.51;102454.25;5092589;28;20532;-44
2023/04/17 02:06:00;;;;;;;37.10;27.15;;;;;;;9.37;96.76;102458.59;5092447;28;20108;-44
2023/04/17 02:08:26;;;;;;;34.15;25.77;;;;;;;9.37;97.31;102458.59;5092430;28;20031;-44
2023/04/17 02:10:51;;;;;;;34.75;25.33;;;;;;;9.40;97.54;102457.28;5092111;28;20028;-44
2023/04/17 02:13:17;;;;;;;34.10;26.15;;;;;;;9.35;97.15;102456.09;5092239;28;20120;-46
2023/04/17 02:15:42;;;;;;;35.63;25.30;;;;;;;9.36;97.57;102446.75;5092079;28;20039;-45
2023/04/17 02:18:08;;;;;;;36.47;25.73;;;;;;;9.45;97.75;102458.13;5092174;28;20074;-47
2023/04/17 02:20:34;;;;;;;35.83;25.88;;;;;;;9.45;96.97;102460.09;5091908;28;20108;-45
2023/04/17 02:23:00;;;;;;;34.70;25.23;;;;;;;9.41;97.64;102445.97;5092102;28;20159;-46
2023/04/17 02:25:26;;;;;;;35.00;26.15;;;;;;;9.45;97.39;102449.84;5091836;28;20044;-47
2023/04/17 02:27:53;;;;;;;36.85;25.85;;;;;;;9.40;97.24;102458.09;5092196;28;20032;-46
2023/04/17 02:30:18;;;;;;;36.33;26.23;;;;;;;9.40;97.61;102460.03;5091934;28;20030;-49
2023/04/17 02:32:44;;;;;;;36.28;25.55;;;;;;;9.38;97.43;102452.00;5091931;28;20020;-46
2023/04/17 02:35:10;;;;;;;37.17;25.80;;;;;;;9.41;98.65;102457.00;5091753;28;20029;-49
2023/04/17 02:37:36;;;;;;;38.15;26.08;;;;;;;9.41;98.66;102451.47;5092016;28;20017;-46
2023/04/17 02:40:05;;;;;;;36.33;26.40;;;;;;;9.40;99.03;102443.47;5091906;28;20400;-47
2023/04/17 02:42:31;;;;;;;38.92;26.35;;;;;;;9.43;98.07;102457.59;5091905;28;20544;-48
2023/04/17 02:44:56;;;;;;;36.90;27.25;;;;;;;9.33;96.87;102461.06;5091790;28;20120;-46
2023/04/17 02:47:21;;;;;;;35.35;25.92;;;;;;;9.28;97.29;102461.00;5091892;28;20024;-47
2023/04/17 02:49:46;;;;;;;35.95;26.17;;;;;;;9.25;97.71;102455.97;5090164;28;20455;-45
2023/04/17 02:52:13;;;;;;;35.70;26.33;;;;;;;9.17;97.21;102462.78;5091925;28;20058;-45
2023/04/17 02:54:38;;;;;;;34.78;25.27;;;;;;;9.16;97.31;102463.88;5091583;28;20108;-46
2023/04/17 02:57:03;;;;;;;34.85;25.42;;;;;;;9.18;97.81;102464.47;5091858;28;20028;-46
2023/04/17 02:59:29;;;;;;;34.72;25.45;;;;;;;9.19;97.14;102465.31;5091562;28;20028;-45
2023/04/17 03:01:58;;;;;;;34.63;24.67;;;;;;;9.26;97.79;102463.19;5091820;28;20016;-45
2023/04/17 03:04:24;;;;;;;35.33;25.45;;;;;;;9.23;97.24;102462.88;5091808;28;20115;-46
2023/04/17 03:06:50;;;;;;;34.75;25.17;;;;;;;9.19;96.92;102462.56;5091806;28;20111;-44
2023/04/17 03:09:17;;;;;;;34.53;25.20;;;;;;;9.23;97.73;102469.22;5091739;28;20024;-45
2023/04/17 03:11:42;;;;;;;36.60;25.52;;;;;;;9.20;97.68;102462.28;5091547;28;20368;-45
2023/04/17 03:14:07;;;;;;;34.15;24.65;;;;;;;9.27;97.81;102464.84;5091790;28;20447;-45
2023/04/17 03:16:33;;;;;;;33.88;25.08;;;;;;;9.26;97.78;102465.94;5090006;28;20537;-45
2023/04/17 03:18:58;;;;;;;33.83;24.02;;;;;;;9.28;96.88;102469.28;5091419;28;20031;-45
2023/04/17 03:21:25;;;;;;;34.30;25.80;;;;;;;9.21;97.05;102472.25;5090096;28;20036;-45
2023/04/17 03:23:50;;;;;;;35.33;24.85;;;;;;;9.28;97.52;102472.06;5091659;28;20415;-44
2023/04/17 03:26:16;;;;;;;35.05;24.70;;;;;;;9.23;97.19;102474.72;5091195;28;20561;-46
2023/04/17 03:28:41;;;;;;;35.55;26.35;;;;;;;9.22;96.50;102473.06;5091756;28;20118;-45
2023/04/17 03:31:06;;;;;;;34.47;26.08;;;;;;;9.19;96.46;102468.06;5091287;28;20520;-45
2023/04/17 03:33:31;;;;;;;34.25;25.33;;;;;;;9.14;97.05;102459.72;5095230;28;20027;-44
2023/04/17 03:35:57;;;;;;;37.65;26.45;;;;;;;9.14;97.08;102468.84;5095033;28;20032;-45
2023/04/17 03:38:22;;;;;;;32.72;25.10;;;;;;;9.17;97.76;102460.03;5095165;28;20024;-45
2023/04/17 03:40:47;;;;;;;35.78;26.95;;;;;;;9.13;97.07;102467.16;5095031;28;20050;-44
2023/04/17 03:43:13;;;;;;;36.13;26.13;;;;;;;9.06;97.11;102463.78;5095267;28;20055;-44
2023/04/17 03:45:38;;;;;;;35.03;25.70;;;;;;;9.11;97.81;102460.25;5093882;28;20024;-46
2023/04/17 03:48:03;;;;;;;35.17;25.65;;;;;;;9.14;97.48;102470.75;5095162;28;20107;-48
2023/04/17 03:50:29;;;;;;;36.08;26.58;;;;;;;9.13;97.22;102466.31;5095062;28;20043;-45
2023/04/17 03:52:54;;;;;;;35.22;25.33;;;;;;;9.12;97.01;102461.88;5095072;28;20076;-45
2023/04/17 03:55:19;;;;;;;35.15;25.77;;;;;;;9.10;98.00;102462.16;5094901;28;20024;-45
2023/04/17 03:57:45;;;;;;;36.38;26.35;;;;;;;9.05;97.30;102460.16;5094865;28;20073;-45
2023/04/17 04:00:11;;;;;;;35.42;26.60;;;;;;;9.03;97.26;102470.63;5094825;28;20481;-45
2023/04/17 04:02:36;;;;;;;35.60;26.42;;;;;;;9.01;97.88;102464.53;5092800;28;20028;-45
2023/04/17 04:05:02;;;;;;;36.08;26.85;;;;;;;9.00;98.02;102470.28;5076705;28;20058;-48
2023/04/17 04:07:27;;;;;;;33.33;26.10;;;;;;;8.96;97.83;102471.91;5094646;28;20779;-45
2023/04/17 04:09:52;;;;;;;36.13;27.10;;;;;;;8.97;98.54;102466.13;5094633;28;20043;-44
2023/04/17 04:12:18;;;;;;;38.03;28.08;;;;;;;9.01;99.12;102466.44;5094682;28;20567;-46
2023/04/17 04:14:43;;;;;;;37.92;27.75;;;;;;;8.96;98.57;102467.22;5094638;28;20043;-45
2023/04/17 04:17:08;;;;;;;39.45;28.73;;;;;;;8.99;99.43;102474.16;5094557;28;20039;-45
2023/04/17 04:19:33;;;;;;;38.17;27.33;;;;;;;8.94;98.79;102460.28;5094514;28;20028;-46
2023/04/17 04:21:59;;;;;;;37.47;27.30;;;;;;;8.94;99.24;102463.03;5094468;28;20031;-44
2023/04/17 04:24:24;;;;;;;38.15;27.83;;;;;;;8.93;99.17;102473.22;5094396;28;20028;-45
2023/04/17 04:26:50;;;;;;;38.33;28.38;;;;;;;8.92;99.19;102468.84;5094177;28;20287;-47
2023/04/17 04:29:16;;;;;;;37.88;28.02;;;;;;;8.88;99.37;102468.47;5094445;28;20031;-46
2023/04/17 04:31:45;;;;;;;38.00;29.17;;;;;;;8.92;99.97;102474.34;5079439;28;20106;-44
2023/04/17 04:34:12;;;;;;;37.88;28.17;;;;;;;8.90;100.00;102463.53;5074117;28;20401;-44
2023/04/17 04:36:40;;;;;;;38.05;26.98;;;;;;;8.96;100.00;102478.25;5087929;28;20161;-45
2023/04/17 04:39:06;;;;;;;40.33;28.63;;;;;;;8.93;100.00;102477.94;5093872;28;20044;-48
2023/04/17 04:41:35;;;;;;;38.97;29.50;;;;;;;8.92;100.00;102482.63;5081211;28;20036;-46
2023/04/17 04:44:01;;;;;;;40.30;29.20;;;;;;;8.93;100.00;102488.97;5072856;28;20119;-45
2023/04/17 04:46:27;;;;;;;40.53;29.73;;;;;;;8.91;100.00;102480.97;5085504;28;20107;-45
2023/04/17 04:48:52;;;;;;;40.00;30.38;;;;;;;8.89;100.00;102481.19;5093682;28;20039;-44
2023/04/17 04:51:18;;;;;;;38.60;29.50;;;;;;;8.89;100.00;102478.44;5093725;28;20028;-45
2023/04/17 04:53:43;;;;;;;39.58;29.02;;;;;;;8.94;100.00;102479.59;5093543;28;20370;-44
2023/04/17 04:56:09;;;;;;;41.33;30.45;;;;;;;8.90;100.00;102488.38;5083576;28;20033;-46
2023/04/17 04:58:34;;;;;;;40.47;29.65;;;;;;;8.88;100.00;102482.28;5073459;28;20070;-45
2023/04/17 05:01:00;;;;;;;40.55;30.23;;;;;;;8.87;100.00;102491.69;5080676;28;20028;-45
2023/04/17 05:03:25;;;;;;;41.17;30.17;;;;;;;8.85;100.00;102491.09;5093495;28;20477;-44
2023/04/17 05:05:50;;;;;;;39.75;29.48;;;;;;;8.87;100.00;102486.16;5092981;28;20024;-45
2023/04/17 05:08:15;;;;;;;39.42;30.88;;;;;;;8.85;100.00;102496.59;5093227;28;20032;-44
2023/04/17 05:10:41;;;;;;;39.00;29.85;;;;;;;8.87;100.00;102494.44;5093312;28;20051;-44
2023/04/17 05:13:06;;;;;;;40.85;31.17;;;;;;;8.79;100.00;102477.47;5093270;28;20051;-44
2023/04/17 05:15:32;;;;;;;41.00;29.35;;;;;;;8.88;100.00;102501.59;5093194;28;20069;-45
2023/04/17 05:17:57;;;;;;;39.58;29.88;;;;;;;8.89;100.00;102495.00;5093415;28;20059;-45
2023/04/17 05:20:22;;;;;;;41.92;31.17;;;;;;;8.90;100.00;102499.44;5093293;28;20050;-46
2023/04/17 05:22:48;;;;;;;39.67;29.23;;;;;;;8.92;100.00;102503.88;5093056;28;20036;-44
2023/04/17 05:25:15;;;;;;;39.75;29.27;;;;;;;8.93;100.00;102502.78;5093080;28;20377;-45
2023/04/17 05:27:40;;;;;;;40.83;29.23;;;;;;;8.93;100.00;102511.88;5093216;28;20036;-48
2023/04/17 05:30:06;;;;;;;43.45;30.50;;;;;;;8.89;100.00;102505.22;5093050;28;20077;-46
2023/04/17 05:32:33;;;;;;;41.30;30.17;;;;;;;8.93;100.00;102513.81;5092925;28;20119;-46
2023/04/17 05:34:59;;;;;;;40.50;29.55;;;;;;;8.90;100.00;102526.22;5092916;28;20034;-45
2023/04/17 05:37:24;;;;;;;40.47;30.40;;;;;;;8.83;100.00;102509.00;5092815;28;20020;-45
2023/04/17 05:39:50;;;;;;;42.78;30.85;;;;;;;8.91;100.00;102508.56;5092770;28;20453;-45
2023/04/17 05:42:15;;;;;;;41.78;29.70;;;;;;;8.95;100.00;102514.41;5076066;28;20464;-45
2023/04/17 05:44:40;;;;;;;42.00;30.17;;;;;;;8.92;100.00;102521.28;5072622;28;20040;-47
2023/04/17 05:47:06;;;;;;;43.08;30.75;;;;;;;8.95;100.00;102517.16;5072439;28;20043;-45
2023/04/17 05:49:31;;;;;;;41.90;31.33;;;;;;;8.92;100.00;102521.28;5072503;28;20066;-46
2023/04/17 05:51:56;;;;;;;41.92;31.10;;;;;;;8.92;100.00;102520.44;5072354;28;20094;-47
2023/04/17 05:54:21;;;;;;;43.90;32.35;;;;;;;8.94;100.00;102521.84;5072033;28;20025;-47
2023/04/17 05:56:48;;;;;;;41.50;30.15;;;;;;;8.95;100.00;102522.69;5082842;28;20036;-47
2023/04/17 05:59:13;;;;;;;43.40;31.52;;;;;;;8.96;100.00;102518.84;5092759;28;20116;-47
2023/04/17 06:01:39;;;;;;;41.20;29.77;;;;;;;9.02;100.00;102517.81;5092330;28;20107;-45
2023/04/17 06:04:04;;;;;;;41.67;30.10;;;;;;;8.97;100.00;102524.09;5092373;28;20058;-45
2023/04/17 06:06:30;;;;;;;41.53;31.60;;;;;;;9.00;100.00;102519.97;5092327;28;20028;-45
2023/04/17 06:08:55;;;;;;;40.72;30.83;;;;;;;8.99;100.00;102526.59;5092292;28;20082;-46
2023/04/17 06:11:21;;;;;;;41.38;30.27;;;;;;;8.96;100.00;102529.88;5090608;28;20062;-45
2023/04/17 06:13:47;;;;;;;40.10;30.60;;;;;;;8.93;100.00;102533.13;5092240;28;20556;-45
2023/04/17 06:16:12;;;;;;;39.88;29.40;;;;;;;8.99;100.00;102534.88;5092197;28;20119;-45
2023/04/17 06:18:38;;;;;;;38.97;29.20;;;;;;;9.10;100.00;102536.69;5092239;28;20051;-46
2023/04/17 06:21:05;;;;;;;42.40;30.50;;;;;;;9.12;100.00;102534.53;5092043;28;20089;-45
2023/04/17 06:23:31;;;;;;;38.15;28.13;;;;;;;9.23;100.00;102538.25;5091936;28;20621;-44
2023/04/17 06:25:56;;;;;;;42.55;30.42;;;;;;;9.29;100.00;102540.00;5090631;28;20123;-45
2023/04/17 06:28:21;;;;;;;39.53;28.85;;;;;;;9.33;99.71;102546.66;5091967;28;20028;-44
2023/04/17 06:30:47;;;;;;;40.05;29.65;;;;;;;9.34;99.12;102544.75;5091812;28;20020;-47
2023/04/17 06:33:12;;;;;;;40.80;28.88;;;;;;;9.43;98.90;102542.38;5091931;28;20469;-46
2023/04/17 06:35:38;;;;;;;38.20;29.42;;;;;;;9.43;98.69;102546.00;5091849;28;20062;-45
2023/04/17 06:38:03;;;;;;;40.83;30.02;;;;;;;9.42;97.75;102544.31;5091681;28;20028;-45
2023/04/17 06:40:28;;;;;;;39.13;29.10;;;;;;;9.44;97.40;102549.56;5092094;28;20126;-45
2023/04/17 06:42:53;;;;;;;40.22;29.20;;;;;;;9.47;96.97;102543.53;5091672;28;20031;-46
2023/04/17 06:45:19;;;;;;;39.65;30.92;;;;;;;9.54;96.70;102555.22;5090305;28;20031;-45
2023/04/17 06:47:45;;;;;;;37.67;29.00;;;;;;;9.60;96.74;102564.41;5089038;28;20131;-45
2023/04/17 06:50:11;;;;;;;39.65;30.13;;;;;;;9.57;96.09;102567.69;5088893;28;20032;-45
2023/04/17 06:52:36;;;;;;;37.97;29.13;;;;;;;9.56;96.57;102558.56;5088723;28;20039;-44
2023/04/17 06:55:01;;;;;;;37.35;28.95;;;;;;;9.59;96.02;102559.97;5088555;28;20131;-44
2023/04/17 06:57:26;;;;;;;40.30;29.75;;;;;;;9.59;95.96;102562.75;5088392;28;20039;-44
2023/04/17 06:59:52;;;;;;;40.00;30.08;;;;;;;9.58;95.52;102572.13;5088859;28;20102;-45
2023/04/17 07:02:17;;;;;;;39.50;29.83;;;;;;;9.57;95.54;102567.69;5089715;28;20056;-45
2023/04/17 07:04:42;;;;;;;37.85;29.55;;;;;;;9.49;95.32;102569.81;5090283;28;20036;-44
2023/04/17 07:07:08;;;;;;;39.95;29.30;;;;;;;9.58;96.11;102567.44;5091810;28;20032;-45
2023/04/17 07:09:33;;;;;;;39.58;30.35;;;;;;;9.69;95.41;102573.94;5094496;28;20036;-44
2023/04/17 07:11:58;;;;;;;40.55;31.20;;;;;;;9.71;94.36;102577.28;5094399;28;20036;-45
2023/04/17 07:14:23;;;;;;;40.03;30.20;;;;;;;9.79;94.44;102578.72;5094468;28;20036;-44
2023/04/17 07:16:49;;;;;;;39.20;30.23;;;;;;;9.83;94.30;102586.25;5094050;28;20038;-44
2023/04/17 07:19:15;;;;;;;40.40;30.80;;;;;;;9.84;93.23;102587.91;5094421;28;20369;-44
2023/04/17 07:21:40;;;;;;;39.97;30.83;;;;;;;9.82;93.46;102587.34;5093922;28;20111;-44
2023/04/17 07:24:06;;;;;;;38.53;30.15;;;;;;;9.77;94.21;102584.53;5094274;28;20115;-44
2023/04/17 07:26:31;;;;;;;38.70;29.83;;;;;;;9.78;93.89;102590.88;5093869;28;20028;-44
2023/04/17 07:28:56;;;;;;;38.97;29.52;;;;;;;9.83;93.72;102594.53;5094223;28;20043;-44
2023/04/17 07:31:21;;;;;;;39.72;29.17;;;;;;;9.86;93.45;102601.50;5093988;28;20039;-45
2023/04/17 07:33:47;;;;;;;43.72;32.90;;;;;;;9.88;93.43;102604.81;5093949;28;20035;-44
2023/04/17 07:36:12;;;;;;;38.47;29.65;;;;;;;9.82;93.62;102594.81;5093792;28;20035;-45
2023/04/17 07:38:37;;;;;;;38.92;29.95;;;;;;;9.88;93.62;102604.00;5092488;28;20036;-45
2023/04/17 07:41:03;;;;;;;39.03;29.67;;;;;;;9.91;94.04;102598.78;5093911;28;20121;-45
2023/04/17 07:43:28;;;;;;;38.28;29.83;;;;;;;10.02;93.91;102607.19;5093626;28;20039;-45
2023/04/17 07:45:54;;;;;;;37.60;28.73;;;;;;;9.99;92.87;102601.09;5093719;28;20024;-44
2023/04/17 07:48:21;;;;;;;38.67;30.40;;;;;;;10.00;92.38;102601.94;5093299;28;20082;-45
2023/04/17 07:50:50;;;;;;;37.45;27.73;;;;;;;10.05;92.55;102604.75;5093611;28;20024;-45
2023/04/17 07:53:16;;;;;;;37.65;28.88;;;;;;;10.10;92.50;102607.59;5093289;28;20565;-47
2023/04/17 07:55:42;;;;;;;37.08;28.67;;;;;;;10.12;92.51;102612.84;5093302;28;20111;-45
2023/04/17 07:58:10;;;;;;;39.05;27.98;;;;;;;10.19;91.80;102607.94;5091871;28;20136;-44
2023/04/17 08:00:36;;;;;;;38.25;29.27;;;;;;;10.18;92.10;102609.03;5093689;28;20082;-44
2023/04/17 08:03:02;;;;;;;36.55;27.60;;;;;;;10.28;91.76;102603.59;5093162;28;20050;-45
2023/04/17 08:05:28;;;;;;;37.67;29.58;;;;;;;10.19;90.62;102602.41;5093245;28;20340;-45
2023/04/17 08:07:53;;;;;;;39.03;29.60;;;;;;;10.23;91.55;102605.47;5093031;28;20531;-43
2023/04/17 08:10:19;;;;;;;37.85;28.00;;;;;;;10.26;91.01;102605.78;5091694;28;20016;-44
2023/04/17 08:12:44;;;;;;;39.55;30.08;;;;;;;10.24;90.56;102609.91;5080310;28;20139;-44
2023/04/17 08:15:10;;;;;;;38.08;29.90;;;;;;;10.27;91.34;102609.41;5072729;28;20508;-44
2023/04/17 08:17:35;;;;;;;39.13;29.17;;;;;;;10.34;90.89;102618.34;5081883;28;20040;-44
2023/04/17 08:20:05;;;;;;;37.65;28.85;;;;;;;10.44;90.50;102615.69;5093159;28;20115;-44
2023/04/17 08:22:30;;;;;;;36.25;28.30;;;;;;;10.56;89.89;102620.25;5093211;28;20489;-45
2023/04/17 08:24:58;;;;;;;36.67;29.17;;;;;;;10.57;89.30;102617.19;5092905;28;20024;-44
2023/04/17 08:27:24;;;;;;;39.45;29.77;;;;;;;10.66;88.96;102622.25;5093079;28;20081;-45
2023/04/17 08:29:52;;;;;;;37.53;28.83;;;;;;;10.71;88.65;102614.00;5092883;28;20032;-44
2023/04/17 08:32:17;;;;;;;38.00;30.02;;;;;;;10.87;88.00;102615.78;5084994;28;20040;-44
2023/04/17 08:34:43;;;;;;;36.97;29.35;;;;;;;10.90;87.13;102614.44;5072172;28;20486;-44
2023/04/17 08:37:08;;;;;;;37.30;27.52;;;;;;;10.92;87.65;102623.31;5075622;28;20062;-44
2023/04/17 08:39:33;;;;;;;37.33;28.73;;;;;;;10.95;87.35;102621.94;5092181;28;20055;-45
2023/04/17 08:42:05;;;;;;;37.78;28.48;;;;;;;10.99;86.70;102628.63;5092719;28;20731;-45
2023/04/17 08:44:30;;;;;;;36.97;27.50;;;;;;;10.95;86.31;102608.09;5092670;28;20035;-44
2023/04/17 08:46:59;;;;;;;38.13;29.10;;;;;;;10.99;86.42;102620.31;5090196;28;20024;-45
2023/04/17 08:49:28;;;;;;;35.13;28.15;;;;;;;11.00;86.40;102617.28;5072238;28;20032;-46
2023/04/17 08:51:54;;;;;;;37.75;28.70;;;;;;;11.02;86.59;102620.63;5074019;28;20028;-45
2023/04/17 08:54:20;;;;;;;38.72;28.90;;;;;;;11.00;86.53;102617.28;5092643;28;20073;-45
2023/04/17 08:56:47;;;;;;;36.30;28.42;;;;;;;11.10;86.52;102621.22;5092604;28;20092;-44
2023/04/17 08:59:12;;;;;;;36.80;28.55;;;;;;;11.09;86.44;102623.16;5092684;28;20583;-46
2023/04/17 09:01:37;;;;;;;36.25;29.15;;;;;;;11.10;86.23;102621.22;5092638;28;20100;-44
2023/04/17 09:04:03;;;;;;;36.33;27.85;;;;;;;11.09;86.34;102623.16;5092468;28;20040;-44
2023/04/17 09:06:47;;;;;;;36.67;28.77;;;;;;;11.16;86.77;102611.84;5092373;28;20139;-44
2023/04/17 09:09:13;;;;;;;38.53;29.85;;;;;;;11.18;86.37;102620.72;5092200;28;20032;-43
2023/04/17 09:11:38;;;;;;;38.33;29.75;;;;;;;11.24;86.32;102622.44;5091052;28;20397;-44
2023/04/17 09:14:03;;;;;;;37.28;30.20;;;;;;;11.30;84.70;102620.50;5091711;28;20480;-44
2023/04/17 09:16:28;;;;;;;36.97;28.17;;;;;;;11.34;84.65;102624.44;5091886;28;20035;-44
2023/04/17 09:19:05;;;;;;;37.58;28.50;;;;;;;11.44;84.56;102624.50;5091529;28;20489;-44
2023/04/17 09:21:31;;;;;;;37.60;29.02;;;;;;;11.52;83.94;102617.63;5092104;28;20060;-44
2023/04/17 09:23:58;;;;;;;35.60;28.63;;;;;;;11.57;83.42;102627.88;5091935;28;20169;-44
2023/04/17 09:26:30;;;;;;;36.97;29.10;;;;;;;11.57;83.47;102609.31;5091604;28;20362;-45
2023/04/17 09:29:00;;;;;;;37.38;29.13;;;;;;;11.64;83.28;102620.16;5091121;28;20028;-43
2023/04/17 09:31:29;;;;;;;36.83;28.48;;;;;;;11.75;82.77;102616.34;5091524;28;20020;-42
2023/04/17 09:33:59;;;;;;;39.58;30.25;;;;;;;11.78;82.57;102624.09;5091717;28;20519;-44
2023/04/17 09:36:26;;;;;;;36.42;28.48;;;;;;;11.92;83.77;102624.41;5091190;28;20500;-42
2023/04/17 09:38:52;;;;;;;39.28;30.30;;;;;;;11.92;82.22;102627.19;5091673;28;20040;-43
2023/04/17 09:41:25;;;;;;;39.28;30.35;;;;;;;11.86;81.78;102592.25;5091862;28;20070;-46
2023/04/17 09:43:53;;;;;;;35.45;29.48;;;;;;;12.06;81.04;102610.91;5091841;28;20032;-44
2023/04/17 09:46:41;;;;;;;36.83;29.00;;;;;;;12.19;81.48;102614.28;5091868;28;20031;-43
2023/04/17 09:49:18;;;;;;;38.92;29.23;;;;;;;12.24;79.82;102612.34;5091745;28;20032;-43
2023/04/17 09:51:45;;;;;;;39.92;30.70;;;;;;;12.37;80.17;102621.25;5091547;28;20028;-44
2023/04/17 09:54:13;;;;;;;39.65;29.75;;;;;;;12.43;79.51;102614.59;5090976;28;20032;-44
2023/04/17 09:56:40;;;;;;;37.72;29.27;;;;;;;12.53;79.07;102620.16;5091419;28;20039;-44
2023/04/17 09:59:06;;;;;;;33.92;26.98;;;;;;;12.62;78.50;102621.28;5091273;28;20024;-44
2023/04/17 10:01:34;;;;;;;35.03;28.58;;;;;;;12.68;76.23;102622.13;5091452;28;20511;-45
2023/04/17 10:04:01;;;;;;;36.50;28.17;;;;;;;12.81;76.84;102617.97;5072653;28;20028;-45
2023/04/17 10:06:27;;;;;;;38.78;29.23;;;;;;;12.85;76.46;102616.28;5070855;28;20056;-44
2023/04/17 10:08:53;;;;;;;34.88;28.15;;;;;;;12.92;75.89;102621.56;5070748;28;20036;-44
2023/04/17 10:11:19;;;;;;;38.63;29.98;;;;;;;12.96;75.76;102619.91;5070808;28;20177;-45
2023/04/17 10:13:51;;;;;;;35.30;27.45;;;;;;;13.04;74.69;102619.31;5070597;28;20078;-45
2023/04/17 10:16:17;;;;;;;36.65;28.40;;;;;;;13.09;73.92;102618.50;5070601;28;20037;-43
2023/04/17 10:18:42;;;;;;;36.00;29.45;;;;;;;13.17;75.01;102611.53;5078311;28;20054;-45
2023/04/17 10:21:23;;;;;;;36.65;28.67;;;;;;;13.21;74.05;102607.06;5090751;28;20531;-44
2023/04/17 10:23:48;;;;;;;34.55;27.60;;;;;;;13.16;71.70;102616.25;5090748;28;20103;-44
2023/04/17 10:26:28;;;;;;;37.00;28.20;;;;;;;13.21;73.30;102615.41;5090655;28;20103;-44
2023/04/17 10:28:56;;;;;;;36.75;28.10;;;;;;;13.24;72.59;102612.91;5090625;28;20128;-44
2023/04/17 10:31:42;;;;;;;35.78;28.58;;;;;;;13.26;72.68;102612.63;5090518;28;20047;-47
2023/04/17 10:34:33;;;;;;;33.80;26.50;;;;;;;13.36;73.53;102614.53;5090429;28;20084;-45
2023/04/17 10:37:00;;;;;;;33.00;25.40;;;;;;;13.40;71.84;102601.78;5089192;28;20020;-44
2023/04/17 10:39:25;;;;;;;33.83;26.83;;;;;;;13.45;70.51;102614.84;5090238;28;20124;-44
2023/04/17 10:42:04;;;;;;;34.80;26.83;;;;;;;13.45;71.47;102601.75;5090397;28;20382;-44
2023/04/17 10:44:39;;;;;;;36.55;27.77;;;;;;;13.52;71.39;102607.84;5090209;28;20430;-44
2023/04/17 10:47:08;;;;;;;32.58;25.38;;;;;;;13.60;70.59;102606.44;5089966;28;20069;-44
2023/04/17 10:49:52;;;;;;;37.00;27.85;;;;;;;13.60;71.70;102598.09;5090616;28;20511;-44
2023/04/17 10:52:38;;;;;;;36.05;27.52;;;;;;;13.66;70.81;102601.69;5090347;28;20115;-44
2023/04/17 10:55:15;;;;;;;31.75;26.30;;;;;;;13.68;69.89;102605.84;5090275;28;20032;-44
2023/04/17 10:58:02;;;;;;;35.40;27.67;;;;;;;13.65;69.88;102597.25;5090620;28;20069;-44
2023/04/17 11:00:30;;;;;;;33.13;25.75;;;;;;;13.64;69.21;102596.44;5090248;28;20028;-45
2023/04/17 11:02:57;;;;;;;33.55;26.70;;;;;;;13.69;69.14;102598.34;5090268;28;20431;-44
2023/04/17 11:05:23;;;;;;;30.67;24.58;;;;;;;13.70;69.77;102591.66;5090512;28;20067;-44
2023/04/17 11:07:52;;;;;;;34.05;27.35;;;;;;;13.76;68.66;102587.75;5090365;28;20051;-44
2023/04/17 11:10:22;;;;;;;33.90;26.08;;;;;;;13.81;69.10;102582.13;5090251;28;20039;-45
2023/04/17 11:12:49;;;;;;;35.10;27.33;;;;;;;13.84;67.90;102595.50;5090218;28;20492;-45